Terminal Aerodrome Forecast
Issued by NWS Corpus Christi, TX

Home | Current Version | Previous Version | Text Only | Print | Product List | Glossary On
Versions: 1 2 3 4 5 6 7 8 9 10 11 12 13 14
784
FTUS44 KCRP 161728
TAFVCT
TAF
KVCT 161728Z 1618/1718 18015G22KT P6SM VCSH SCT045 BKN250
      TEMPO 1618/1620 BKN030
     FM162000 16016G25KT P6SM FEW040 SCT250
     FM170400 15009KT P6SM SCT025
     FM171600 18013G20KT P6SM SCT035=

USA.gov is the U.S. government's official web portal to all federal, state and local government web resources and services.